Time;durP1;ratioP1;P1;durP2;ratioP2;P2;SDS_P1;SDS_P2;PMS_P1;PMS_P2;Temp;Humidity;BMP_temperature;BMP_pressure;BME280_temperature;BME280_humidity;BME280_pressure;Samples;Min_cycle;Max_cycle;Signal;HPM_P1;HPM_P2
2022/01/18 00:01:52;;;;;;;58.03;10.18;;;7.90;99.90;;;;;;5033969;28;20493;-73
2022/01/18 00:04:18;;;;;;;61.88;9.43;;;7.90;99.90;;;;;;5017453;28;20120;-73
2022/01/18 00:06:48;;;;;;;65.10;9.32;;;7.90;99.90;;;;;;5017520;28;20076;-73
2022/01/18 00:09:15;;;;;;;62.92;9.68;;;7.80;99.90;;;;;;5033663;28;20052;-73
2022/01/18 00:11:48;;;;;;;58.05;8.60;;;7.80;99.90;;;;;;5033811;28;20359;-73
2022/01/18 00:14:24;;;;;;;;;;;7.80;99.90;;;;;;5034580;28;20064;-73
2022/01/18 00:17:42;;;;;;;59.75;9.25;;;7.70;99.90;;;;;;5033847;28;19960;-73
2022/01/18 00:19:40;;;;;;;62.65;9.00;;;7.60;99.90;;;;;;5026491;28;20049;-73
2022/01/18 00:24:31;;;;;;;68.22;9.95;;;7.60;99.90;;;;;;5033902;28;20042;-73
2022/01/18 00:26:57;;;;;;;71.10;8.55;;;7.60;99.90;;;;;;5033893;28;20038;-73
2022/01/18 00:29:25;;;;;;;51.55;8.10;;;7.60;99.90;;;;;;5033474;28;20564;-73
2022/01/18 00:32:13;;;;;;;61.53;8.23;;;7.60;99.90;;;;;;5033493;28;20041;-73
2022/01/18 00:34:40;;;;;;;57.50;9.13;;;7.60;99.90;;;;;;5033508;28;20051;-73
2022/01/18 00:39:31;;;;;;;63.80;8.60;;;7.40;99.90;;;;;;5033145;28;20050;-73
2022/01/18 00:41:57;;;;;;;60.13;8.18;;;7.40;99.90;;;;;;5033261;28;20132;-73
2022/01/18 00:44:23;;;;;;;56.78;10.45;;;7.40;99.90;;;;;;5033254;28;20068;-73
2022/01/18 00:46:49;;;;;;;63.00;9.35;;;7.40;99.90;;;;;;5033232;28;20034;-73
2022/01/18 00:49:15;;;;;;;60.92;9.00;;;7.30;99.90;;;;;;5033340;28;20037;-73
2022/01/18 00:51:44;;;;;;;58.20;9.35;;;7.30;99.90;;;;;;5033167;28;20041;-73
2022/01/18 00:54:13;;;;;;;67.22;10.50;;;7.30;99.90;;;;;;5033313;28;20124;-73
2022/01/18 00:56:40;;;;;;;68.03;8.90;;;7.30;99.90;;;;;;5033018;28;20038;-73
2022/01/18 00:59:07;;;;;;;60.60;8.55;;;7.30;99.90;;;;;;5032927;28;20124;-73
2022/01/18 01:01:34;;;;;;;71.22;8.65;;;7.30;99.90;;;;;;5032809;28;20100;-73
2022/01/18 01:04:02;;;;;;;57.45;8.93;;;7.20;99.90;;;;;;5033077;28;20037;-73
2022/01/18 01:06:29;;;;;;;53.97;8.75;;;7.20;99.90;;;;;;5016863;28;20080;-73
2022/01/18 01:08:55;;;;;;;73.32;9.43;;;7.20;99.90;;;;;;5032978;28;20456;-73
2022/01/18 01:11:21;;;;;;;55.30;8.48;;;7.10;99.90;;;;;;5032909;28;20520;-73
2022/01/18 01:13:49;;;;;;;62.28;9.05;;;7.10;99.90;;;;;;5033778;28;20059;-73
2022/01/18 01:33:21;;;;;;;57.80;8.18;;;6.90;99.90;;;;;;5032946;28;20049;-73
2022/01/18 01:46:27;;;;;;;55.97;8.50;;;7.00;99.90;;;;;;5032366;28;20037;-73
2022/01/18 01:48:55;;;;;;;58.72;9.23;;;7.00;99.90;;;;;;5032029;28;20382;-73
2022/01/18 01:51:28;;;;;;;57.00;7.78;;;7.00;99.90;;;;;;5032309;28;20041;-73
2022/01/18 01:53:54;;;;;;;62.63;8.40;;;7.00;99.90;;;;;;5032334;28;20071;-73
2022/01/18 01:56:20;;;;;;;60.95;7.93;;;7.00;99.90;;;;;;5032223;28;20053;-73
2022/01/18 01:58:46;;;;;;;45.10;7.55;;;7.00;99.90;;;;;;5032107;28;20077;-73
2022/01/18 02:01:11;;;;;;;50.83;8.60;;;7.00;99.90;;;;;;5031875;28;20517;-73
2022/01/18 02:03:37;;;;;;;56.92;8.45;;;7.00;99.90;;;;;;5032186;28;20041;-73
2022/01/18 02:06:03;;;;;;;61.25;8.70;;;7.10;99.90;;;;;;5031904;28;20486;-73
2022/01/18 02:08:29;;;;;;;45.13;7.93;;;7.10;99.90;;;;;;5031776;28;20547;-73
2022/01/18 02:10:54;;;;;;;55.20;7.32;;;7.10;99.90;;;;;;5031842;28;20037;-73
2022/01/18 02:13:20;;;;;;;56.67;8.88;;;7.00;99.90;;;;;;5031872;28;20041;-73
2022/01/18 02:24:07;;;;;;;70.85;9.85;;;7.10;99.90;;;;;;5032050;28;20132;-73
2022/01/18 02:26:33;;;;;;;67.22;8.95;;;7.10;99.90;;;;;;5031980;28;20042;-73
2022/01/18 02:29:01;;;;;;;70.45;10.20;;;7.10;99.90;;;;;;5015407;28;20486;-73
2022/01/18 02:31:27;;;;;;;60.35;8.63;;;7.10;99.90;;;;;;5031716;28;20057;-73
2022/01/18 02:33:53;;;;;;;48.53;7.88;;;7.10;99.90;;;;;;5034400;28;20151;-73
2022/01/18 02:36:18;;;;;;;69.72;9.75;;;7.10;99.90;;;;;;5035670;28;20162;-73
2022/01/18 02:38:44;;;;;;;55.42;9.20;;;7.10;99.90;;;;;;5035463;28;20045;-73
2022/01/18 02:41:09;;;;;;;55.63;9.30;;;7.10;99.90;;;;;;5035549;28;20038;-73
2022/01/18 02:43:47;;;;;;;55.55;9.30;;;7.10;99.90;;;;;;5035579;28;20038;-73
2022/01/18 02:46:13;;;;;;;66.28;9.32;;;7.10;99.90;;;;;;5019340;28;20042;-73
2022/01/18 02:48:38;;;;;;;61.28;8.57;;;7.10;99.90;;;;;;5018858;28;20454;-72
2022/01/18 02:51:05;;;;;;;58.90;7.18;;;7.10;99.90;;;;;;5035838;28;20086;-73
2022/01/18 02:53:30;;;;;;;48.33;5.97;;;7.10;99.90;;;;;;5018921;28;20123;-73
2022/01/18 02:55:58;;;;;;;44.50;6.60;;;7.00;99.90;;;;;;5035339;28;20110;-73
2022/01/18 02:58:28;;;;;;;42.67;6.45;;;7.00;99.90;;;;;;5035237;28;20041;-73
2022/01/18 03:03:29;;;;;;;44.90;6.63;;;7.00;99.90;;;;;;5035498;28;20045;-73
2022/01/18 03:05:55;;;;;;;42.28;5.82;;;7.00;99.90;;;;;;5035157;28;20037;-73
2022/01/18 03:08:21;;;;;;;38.28;5.95;;;7.00;99.90;;;;;;5035073;28;20041;-73
2022/01/18 03:10:47;;;;;;;38.92;6.20;;;7.10;99.90;;;;;;5035093;28;20048;-73
2022/01/18 03:13:13;;;;;;;36.80;5.22;;;7.10;99.90;;;;;;5035012;28;20045;-73
2022/01/18 03:15:38;;;;;;;37.83;5.72;;;7.10;99.90;;;;;;5035232;28;20041;-73
2022/01/18 03:18:07;;;;;;;45.78;6.30;;;7.10;99.90;;;;;;5035198;28;20048;-73
2022/01/18 03:20:33;;;;;;;30.58;5.88;;;7.10;99.90;;;;;;5034870;28;20052;-73
2022/01/18 03:22:59;;;;;;;42.45;5.68;;;7.10;99.90;;;;;;5034858;28;20117;-73
2022/01/18 03:28:06;;;;;;;35.88;5.88;;;7.20;99.90;;;;;;5034665;28;20475;-73
2022/01/18 03:30:40;;;;;;;34.15;5.20;;;7.20;99.90;;;;;;5034800;28;20041;-73
2022/01/18 03:33:11;;;;;;;33.70;5.05;;;7.20;99.90;;;;;;5034956;28;20049;-73
2022/01/18 03:35:38;;;;;;;31.75;4.95;;;7.20;99.90;;;;;;5034685;28;20042;-73
2022/01/18 03:38:04;;;;;;;25.40;4.20;;;7.20;99.90;;;;;;5017873;28;20461;-73
2022/01/18 03:40:30;;;;;;;31.13;4.47;;;7.20;99.90;;;;;;5034494;28;20092;-73
2022/01/18 03:42:58;;;;;;;31.65;4.72;;;7.20;99.90;;;;;;5034685;28;20037;-73
2022/01/18 03:45:41;;;;;;;24.02;4.55;;;7.20;99.90;;;;;;5033629;28;20040;-73
2022/01/18 03:48:26;;;;;;;27.33;4.70;;;7.20;99.90;;;;;;5034626;28;20521;-73
2022/01/18 03:50:52;;;;;;;27.85;4.38;;;7.20;99.90;;;;;;5034361;28;20041;-73
2022/01/18 03:53:19;;;;;;;33.13;5.47;;;7.30;99.90;;;;;;5034575;28;20045;-73
2022/01/18 03:55:45;;;;;;;27.20;4.70;;;7.20;99.90;;;;;;5034212;28;20124;-73
2022/01/18 03:58:11;;;;;;;29.50;4.80;;;7.30;99.90;;;;;;5017828;28;20128;-73
2022/01/18 04:00:37;;;;;;;25.00;4.20;;;7.20;99.90;;;;;;5034057;28;20050;-73
2022/01/18 04:03:02;;;;;;;26.40;4.47;;;7.30;99.90;;;;;;5034318;28;20034;-73
2022/01/18 04:05:28;;;;;;;26.10;4.47;;;7.30;99.90;;;;;;5017791;28;20037;-73
2022/01/18 04:07:54;;;;;;;24.30;3.90;;;7.20;99.90;;;;;;5017480;28;20401;-73
2022/01/18 04:10:19;;;;;;;28.02;3.72;;;7.20;99.90;;;;;;5033917;28;20048;-73
2022/01/18 04:12:45;;;;;;;30.63;4.55;;;7.20;99.90;;;;;;5033922;28;20179;-73
2022/01/18 04:15:13;;;;;;;25.30;4.97;;;7.20;99.90;;;;;;5033819;28;20080;-73
2022/01/18 04:31:05;;;;;;;21.53;3.80;;;7.20;99.90;;;;;;5033892;28;20053;-73
2022/01/18 04:33:32;;;;;;;24.85;3.83;;;7.10;99.90;;;;;;5034628;28;20049;-73
2022/01/18 04:35:58;;;;;;;23.60;3.97;;;7.10;99.90;;;;;;5033501;28;20091;-73
2022/01/18 04:38:23;;;;;;;20.08;3.00;;;7.10;99.90;;;;;;5016877;28;20037;-73
2022/01/18 04:40:49;;;;;;;23.85;3.72;;;7.10;99.90;;;;;;5016836;28;20409;-73
2022/01/18 04:43:26;;;;;;;25.10;4.22;;;7.00;99.90;;;;;;5033607;28;20041;-73
2022/01/18 04:48:37;;;;;;;26.50;3.90;;;7.00;99.90;;;;;;5033399;28;20049;-73
2022/01/18 04:51:11;;;;;;;22.05;3.65;;;7.00;99.90;;;;;;5033219;28;20052;-73
2022/01/18 04:53:41;;;;;;;24.35;3.13;;;7.00;99.90;;;;;;5033502;28;20080;-73
2022/01/18 04:56:11;;;;;;;21.83;3.55;;;7.00;99.90;;;;;;5016623;28;20041;-73
2022/01/18 04:58:37;;;;;;;21.02;3.50;;;7.00;99.90;;;;;;5032992;28;20041;-73
2022/01/18 05:01:04;;;;;;;21.27;3.00;;;7.00;99.90;;;;;;5033063;28;20091;-73
2022/01/18 05:03:30;;;;;;;19.77;3.45;;;7.10;99.90;;;;;;5032938;28;20071;-73
2022/01/18 05:06:03;;;;;;;23.35;3.42;;;7.10;99.90;;;;;;5032926;28;20041;-73
2022/01/18 05:08:29;;;;;;;21.42;4.35;;;7.00;99.90;;;;;;5032815;28;20033;-73
2022/01/18 05:10:57;;;;;;;23.98;3.45;;;7.00;99.90;;;;;;5033105;28;20048;-73
2022/01/18 05:21:33;;;;;;;22.63;4.72;;;7.00;99.90;;;;;;5032690;28;20053;-73
2022/01/18 05:23:59;;;;;;;22.80;4.28;;;7.00;99.90;;;;;;5032795;28;20110;-73
2022/01/18 05:26:26;;;;;;;17.77;4.00;;;7.00;99.90;;;;;;5032573;28;20044;-73
2022/01/18 05:28:52;;;;;;;22.67;4.47;;;7.10;99.90;;;;;;5016256;28;20037;-73
2022/01/18 05:31:18;;;;;;;21.02;4.30;;;7.10;99.90;;;;;;5032424;28;20505;-73
2022/01/18 05:33:46;;;;;;;18.33;3.95;;;7.10;99.90;;;;;;5032413;28;20038;-73
2022/01/18 05:36:12;;;;;;;17.98;3.53;;;7.10;99.90;;;;;;5032618;28;20053;-73
2022/01/18 05:38:38;;;;;;;21.00;3.47;;;7.10;99.90;;;;;;5032094;28;20045;-73
2022/01/18 05:41:06;;;;;;;21.55;4.05;;;7.20;99.90;;;;;;5032231;28;20045;-73
2022/01/18 05:43:33;;;;;;;23.95;3.67;;;7.20;99.90;;;;;;5032285;28;20116;-73
2022/01/18 05:45:59;;;;;;;18.58;4.03;;;7.20;99.90;;;;;;5015779;28;20045;-73
2022/01/18 05:48:25;;;;;;;24.20;3.30;;;7.10;99.90;;;;;;5032095;28;20048;-73
2022/01/18 05:50:51;;;;;;;17.85;3.75;;;7.10;99.90;;;;;;5032119;28;20080;-73
2022/01/18 05:53:17;;;;;;;20.95;3.45;;;7.10;99.90;;;;;;5032115;28;20037;-73
2022/01/18 05:55:43;;;;;;;17.13;3.38;;;7.10;99.90;;;;;;5032359;28;20087;-73
2022/01/18 05:58:08;;;;;;;20.58;3.03;;;7.10;99.90;;;;;;5031918;28;20041;-73
2022/01/18 06:00:34;;;;;;;16.95;3.58;;;7.00;99.90;;;;;;5032178;28;20045;-73
2022/01/18 06:03:03;;;;;;;19.95;2.65;;;7.00;99.90;;;;;;5031934;28;20382;-73
2022/01/18 06:08:13;;;;;;;21.08;3.35;;;7.00;99.90;;;;;;5031463;28;20401;-73
2022/01/18 06:10:39;;;;;;;14.43;2.30;;;7.00;99.90;;;;;;5031901;28;20057;-73
2022/01/18 06:13:07;;;;;;;17.88;2.88;;;7.00;99.90;;;;;;5032073;28;20045;-73
2022/01/18 06:15:33;;;;;;;20.10;3.47;;;7.00;99.90;;;;;;5031753;28;20042;-73
2022/01/18 06:17:59;;;;;;;20.20;3.55;;;7.00;99.90;;;;;;5031958;28;20077;-73
2022/01/18 06:20:25;;;;;;;25.13;3.35;;;7.00;99.90;;;;;;5031709;28;20484;-73
2022/01/18 06:22:51;;;;;;;22.42;2.92;;;7.00;99.90;;;;;;5031813;28;20037;-73
2022/01/18 06:25:18;;;;;;;20.42;4.00;;;6.90;99.90;;;;;;5015355;28;20445;-73
2022/01/18 06:27:44;;;;;;;19.52;3.83;;;7.00;99.90;;;;;;5015457;28;20041;-73
2022/01/18 06:30:11;;;;;;;19.52;3.90;;;7.00;99.90;;;;;;5015312;28;20145;-73
2022/01/18 06:32:38;;;;;;;23.30;4.43;;;7.00;99.90;;;;;;5031711;28;20045;-73
2022/01/18 06:35:05;;;;;;;15.63;3.70;;;7.00;99.90;;;;;;5015503;28;20045;-73
2022/01/18 06:37:30;;;;;;;17.65;3.90;;;7.00;99.90;;;;;;5015073;28;20079;-73
2022/01/18 06:39:58;;;;;;;27.20;4.18;;;7.00;99.90;;;;;;5031827;28;20068;-73
2022/01/18 06:42:24;;;;;;;17.17;4.10;;;7.00;99.90;;;;;;5031556;28;20124;-73
2022/01/18 06:44:50;;;;;;;18.95;4.18;;;7.00;99.90;;;;;;5031567;28;20041;-73
2022/01/18 06:47:16;;;;;;;23.45;4.45;;;7.00;99.90;;;;;;5031518;28;20088;-73
2022/01/18 06:49:42;;;;;;;18.92;4.97;;;7.00;99.90;;;;;;5015239;28;20045;-73
2022/01/18 06:52:08;;;;;;;20.77;4.30;;;6.90;99.90;;;;;;5031439;28;20671;-73
2022/01/18 06:54:33;;;;;;;17.98;4.32;;;7.00;99.90;;;;;;5031682;28;20037;-73
2022/01/18 06:56:59;;;;;;;20.25;4.40;;;7.00;99.90;;;;;;5031468;28;20098;-72
2022/01/18 06:59:24;;;;;;;18.00;4.43;;;7.00;99.90;;;;;;5031356;28;20052;-72
2022/01/18 07:01:50;;;;;;;19.20;4.90;;;6.90;99.90;;;;;;5031413;28;20128;-72
2022/01/18 07:04:16;;;;;;;17.33;4.28;;;6.90;99.90;;;;;;5031617;28;20516;-72
2022/01/18 07:06:42;;;;;;;17.13;4.47;;;6.90;99.90;;;;;;5073194;22;20049;-70
2022/01/18 07:09:08;;;;;;;18.23;4.47;;;6.90;99.90;;;;;;5034803;28;20037;-70
2022/01/18 07:11:34;;;;;;;15.63;4.13;;;6.80;99.90;;;;;;5051229;28;20048;-70
2022/01/18 07:13:59;;;;;;;21.25;4.90;;;6.80;99.90;;;;;;5051186;28;20075;-70
2022/01/18 07:16:25;;;;;;;15.80;4.57;;;6.70;99.90;;;;;;5051321;28;20040;-70
2022/01/18 07:18:51;;;;;;;17.45;4.32;;;6.70;99.90;;;;;;5051211;28;20492;-70
2022/01/18 07:21:16;;;;;;;21.83;5.03;;;6.70;99.90;;;;;;5054162;28;20041;-70
2022/01/18 07:23:43;;;;;;;20.77;5.20;;;6.70;99.90;;;;;;5055009;28;20041;-70
2022/01/18 07:26:09;;;;;;;20.70;4.93;;;6.70;99.90;;;;;;5054954;28;20045;-70
2022/01/18 07:28:35;;;;;;;23.70;5.78;;;6.70;99.90;;;;;;5054964;28;20036;-70
2022/01/18 07:31:00;;;;;;;22.02;5.93;;;6.70;99.90;;;;;;5054954;28;20143;-70
2022/01/18 07:33:26;;;;;;;20.02;5.13;;;6.70;99.90;;;;;;5054583;28;20492;-70
2022/01/18 07:35:52;;;;;;;17.15;5.75;;;6.60;99.90;;;;;;5054522;28;20041;-70
2022/01/18 07:38:18;;;;;;;20.58;5.43;;;6.70;99.90;;;;;;5054505;28;20067;-70
2022/01/18 07:40:49;;;;;;;22.25;5.80;;;6.60;99.90;;;;;;5054466;28;20080;-70
2022/01/18 07:43:17;;;;;;;18.17;4.63;;;6.60;99.90;;;;;;5054514;28;20036;-70
2022/01/18 07:45:44;;;;;;;19.65;5.07;;;6.60;99.90;;;;;;5054419;28;20108;-70
2022/01/18 07:48:11;;;;;;;25.35;5.22;;;6.50;99.90;;;;;;5054484;28;20044;-70
2022/01/18 07:50:37;;;;;;;24.77;5.72;;;6.50;99.90;;;;;;5054407;28;20428;-70
2022/01/18 07:53:03;;;;;;;18.58;5.55;;;6.50;99.90;;;;;;5054704;28;20045;-70
2022/01/18 07:55:29;;;;;;;21.98;5.93;;;6.40;99.90;;;;;;5054105;28;20572;-69
2022/01/18 07:57:57;;;;;;;20.45;6.07;;;6.40;99.90;;;;;;5054152;28;20045;-69
2022/01/18 08:00:22;;;;;;;17.58;5.72;;;6.40;99.90;;;;;;5054053;28;20044;-69
2022/01/18 08:02:48;;;;;;;20.75;6.55;;;6.30;99.90;;;;;;5054047;28;20037;-69
2022/01/18 08:05:14;;;;;;;22.77;7.13;;;6.30;99.90;;;;;;5037485;28;20037;-69
2022/01/18 08:07:39;;;;;;;18.17;5.70;;;6.30;99.90;;;;;;5053986;28;20128;-69
2022/01/18 08:10:06;;;;;;;21.30;6.13;;;6.30;99.90;;;;;;5053938;28;20039;-69
2022/01/18 08:12:32;;;;;;;18.95;6.35;;;6.30;99.90;;;;;;5054165;28;20083;-69
2022/01/18 08:15:03;;;;;;;19.70;5.93;;;6.30;99.90;;;;;;5053750;28;20068;-69
2022/01/18 08:17:30;;;;;;;23.88;5.90;;;6.30;99.90;;;;;;5053842;28;20489;-68
2022/01/18 08:19:55;;;;;;;22.88;6.50;;;6.30;99.90;;;;;;5053813;28;20083;-69
2022/01/18 08:22:21;;;;;;;20.23;5.70;;;6.30;99.90;;;;;;5037047;28;20081;-69
2022/01/18 08:24:47;;;;;;;17.67;5.45;;;6.30;99.90;;;;;;5037758;28;20041;-69
2022/01/18 08:27:13;;;;;;;30.83;6.10;;;6.30;99.90;;;;;;5053648;28;20408;-69
2022/01/18 08:29:38;;;;;;;20.17;5.25;;;6.30;99.90;;;;;;5036981;28;20041;-69
2022/01/18 08:32:05;;;;;;;20.73;5.63;;;6.30;99.90;;;;;;5036818;28;20041;-69
2022/01/18 08:34:32;;;;;;;17.13;5.15;;;6.30;99.90;;;;;;5053490;28;20564;-69
2022/01/18 08:36:58;;;;;;;15.18;5.07;;;6.30;99.90;;;;;;5053625;28;20120;-69
2022/01/18 08:39:23;;;;;;;19.67;5.05;;;6.40;99.90;;;;;;5053609;28;20179;-69
2022/01/18 08:41:50;;;;;;;21.80;4.55;;;6.40;99.90;;;;;;5053266;28;20405;-71
2022/01/18 08:44:15;;;;;;;19.90;4.80;;;6.40;99.90;;;;;;5053642;28;20501;-71
2022/01/18 08:46:41;;;;;;;19.40;4.78;;;6.40;99.90;;;;;;5053450;28;20603;-71
2022/01/18 08:49:07;;;;;;;20.30;5.18;;;6.40;99.90;;;;;;5053208;28;20037;-71
2022/01/18 08:51:33;;;;;;;19.63;5.10;;;6.50;99.90;;;;;;5053452;28;20098;-71
2022/01/18 08:53:59;;;;;;;19.23;4.93;;;6.50;99.90;;;;;;5053666;28;20095;-71
2022/01/18 08:56:25;;;;;;;21.63;5.25;;;6.60;99.90;;;;;;5053240;28;20106;-71
2022/01/18 08:58:51;;;;;;;17.65;4.55;;;6.60;99.90;;;;;;5053014;28;20412;-72
2022/01/18 09:01:17;;;;;;;17.35;4.43;;;6.60;99.90;;;;;;5036279;28;20037;-71
2022/01/18 09:03:43;;;;;;;16.15;4.15;;;6.60;99.90;;;;;;5053190;28;20051;-71
2022/01/18 09:06:13;;;;;;;20.70;5.22;;;6.60;99.90;;;;;;5036041;28;20099;-71
2022/01/18 09:08:40;;;;;;;18.65;5.97;;;6.60;99.90;;;;;;5052863;28;20041;-71
2022/01/18 09:11:07;;;;;;;19.52;6.07;;;6.60;99.90;;;;;;5053061;28;20044;-71
2022/01/18 09:13:34;;;;;;;23.20;6.25;;;6.70;99.90;;;;;;5036154;28;20044;-71
2022/01/18 09:16:01;;;;;;;24.17;6.78;;;6.60;99.90;;;;;;5052643;28;20041;-71
2022/01/18 09:18:27;;;;;;;25.73;7.15;;;6.60;99.90;;;;;;5036321;28;20056;-71
2022/01/18 09:20:53;;;;;;;32.00;8.02;;;6.60;99.90;;;;;;5052487;28;20428;-71
2022/01/18 09:23:18;;;;;;;24.98;7.93;;;6.60;99.90;;;;;;5052541;28;20072;-71
2022/01/18 09:25:44;;;;;;;23.63;7.68;;;6.60;99.90;;;;;;5036118;28;20037;-71
2022/01/18 09:28:10;;;;;;;24.08;7.22;;;6.60;99.90;;;;;;5052630;28;20484;-71
2022/01/18 09:30:37;;;;;;;21.45;7.50;;;6.70;99.90;;;;;;5052426;28;20048;-71
2022/01/18 09:33:06;;;;;;;21.02;7.60;;;6.60;99.90;;;;;;5035803;28;20077;-71
2022/01/18 09:35:35;;;;;;;28.98;8.68;;;6.70;99.90;;;;;;5035827;28;20127;-69
2022/01/18 09:38:01;;;;;;;21.27;7.32;;;6.70;99.90;;;;;;5052299;28;20044;-70
2022/01/18 09:40:28;;;;;;;20.48;7.70;;;6.70;99.90;;;;;;5035550;28;20041;-70
2022/01/18 09:42:59;;;;;;;25.88;8.15;;;6.70;99.90;;;;;;5051560;28;20489;-69
2022/01/18 09:45:26;;;;;;;24.98;8.55;;;6.80;99.90;;;;;;5052132;28;20045;-71
2022/01/18 09:47:53;;;;;;;24.95;8.48;;;6.80;99.90;;;;;;5052115;28;20492;-70
2022/01/18 09:50:25;;;;;;;23.08;8.68;;;6.80;99.90;;;;;;5052110;28;20041;-70
2022/01/18 09:52:54;;;;;;;26.25;8.77;;;6.80;99.90;;;;;;5052075;28;20095;-70
2022/01/18 09:55:23;;;;;;;25.75;8.48;;;6.80;99.90;;;;;;5035317;28;20445;-70
2022/01/18 09:57:50;;;;;;;24.10;9.63;;;6.80;99.90;;;;;;5052008;28;20037;-71
2022/01/18 10:00:16;;;;;;;30.10;9.98;;;6.90;99.90;;;;;;5052188;28;20485;-70
2022/01/18 10:02:43;;;;;;;24.20;8.77;;;6.90;99.90;;;;;;5035457;28;20470;-70
2022/01/18 10:05:21;;;;;;;20.70;8.02;;;6.90;99.90;;;;;;5051615;28;20120;-70
2022/01/18 10:08:03;;;;;;;19.48;8.50;;;7.10;99.90;;;;;;5035255;28;20048;-70
2022/01/18 10:10:46;;;;;;;20.77;8.45;;;7.10;99.90;;;;;;5052096;28;20082;-70
2022/01/18 10:13:18;;;;;;;23.33;8.32;;;7.10;99.90;;;;;;5052071;28;20119;-70
2022/01/18 10:16:02;;;;;;;25.42;9.02;;;7.10;99.90;;;;;;5035035;28;20037;-70
2022/01/18 10:18:43;;;;;;;26.27;9.57;;;7.10;99.90;;;;;;5052591;28;20045;-70
2022/01/18 10:21:09;;;;;;;29.27;8.93;;;7.10;99.90;;;;;;5051723;28;20076;-70
2022/01/18 10:23:37;;;;;;;21.50;8.75;;;7.00;99.90;;;;;;5051657;28;20041;-70
2022/01/18 10:26:20;;;;;;;30.10;9.45;;;7.00;99.90;;;;;;5051608;28;20507;-71
2022/01/18 10:28:47;;;;;;;24.73;7.68;;;7.10;99.90;;;;;;5051941;28;20041;-70
2022/01/18 10:31:28;;;;;;;22.65;7.70;;;7.10;99.90;;;;;;5051875;28;20401;-70
2022/01/18 10:34:23;;;;;;;19.65;7.38;;;7.10;99.90;;;;;;5051882;28;20432;-70
2022/01/18 10:37:03;;;;;;;21.23;8.23;;;7.20;99.90;;;;;;5051546;28;20041;-71
2022/01/18 10:39:36;;;;;;;22.40;7.90;;;7.10;99.90;;;;;;5034995;28;20528;-71
2022/01/18 10:42:25;;;;;;;24.17;8.93;;;7.10;99.90;;;;;;5051788;28;20517;-70
2022/01/18 10:45:06;;;;;;;28.15;8.40;;;7.10;99.90;;;;;;5051486;28;20037;-71
2022/01/18 10:47:33;;;;;;;20.63;7.70;;;7.10;99.90;;;;;;5051530;28;20037;-71
2022/01/18 10:50:08;;;;;;;23.55;7.45;;;7.00;99.90;;;;;;5051506;28;20534;-70
2022/01/18 10:52:33;;;;;;;16.88;7.00;;;7.00;99.90;;;;;;5051478;28;20045;-70
2022/01/18 10:55:00;;;;;;;18.60;5.50;;;7.10;99.90;;;;;;5054360;28;20041;-71
2022/01/18 10:57:28;;;;;;;22.00;5.40;;;7.20;99.90;;;;;;5055330;28;20048;-71
2022/01/18 11:00:12;;;;;;;15.30;3.85;;;7.30;99.90;;;;;;5038975;28;20531;-71
2022/01/18 11:02:40;;;;;;;16.38;5.13;;;7.30;99.90;;;;;;5039138;28;20049;-71
2022/01/18 11:05:30;;;;;;;17.77;4.90;;;7.30;99.90;;;;;;5038704;28;20489;-71
2022/01/18 11:08:02;;;;;;;20.20;4.40;;;7.40;99.90;;;;;;5055392;28;20033;-71
2022/01/18 11:10:51;;;;;;;15.00;4.40;;;7.40;99.90;;;;;;5055609;28;20051;-71
2022/01/18 11:13:24;;;;;;;15.82;3.80;;;7.40;99.90;;;;;;5055070;28;20107;-70
2022/01/18 11:16:01;;;;;;;19.98;5.00;;;7.30;99.90;;;;;;5038353;28;20041;-71
2022/01/18 11:18:30;;;;;;;21.15;5.15;;;7.30;99.90;;;;;;5054927;28;20044;-71
2022/01/18 11:20:56;;;;;;;20.13;5.05;;;7.30;99.90;;;;;;5055046;28;20129;-71
2022/01/18 11:23:24;;;;;;;15.38;3.17;;;7.30;99.90;;;;;;5038496;28;20037;-71
2022/01/18 11:25:53;;;;;;;14.27;3.40;;;7.30;99.90;;;;;;5038049;28;20041;-71
2022/01/18 11:28:19;;;;;;;17.30;4.03;;;7.30;99.90;;;;;;5054748;28;20043;-71
2022/01/18 11:30:47;;;;;;;15.18;3.85;;;7.20;99.90;;;;;;5054623;28;20041;-71
2022/01/18 11:33:18;;;;;;;16.45;3.88;;;7.30;99.90;;;;;;5054644;28;20124;-70
2022/01/18 11:36:03;;;;;;;17.50;4.20;;;7.20;99.90;;;;;;5037950;28;20505;-71
2022/01/18 11:38:48;;;;;;;15.40;4.40;;;7.30;99.90;;;;;;5054888;28;20068;-71
2022/01/18 11:41:21;;;;;;;13.32;3.92;;;7.30;99.90;;;;;;5054631;28;20076;-71
2022/01/18 11:43:46;;;;;;;14.55;4.35;;;7.20;99.90;;;;;;5037777;28;20047;-72
2022/01/18 11:46:34;;;;;;;12.48;3.42;;;7.20;99.90;;;;;;5054380;28;20041;-70
2022/01/18 11:49:13;;;;;;;18.67;4.00;;;7.20;99.90;;;;;;5037791;28;20044;-71
2022/01/18 11:51:54;;;;;;;15.40;4.28;;;7.20;99.90;;;;;;5037775;28;20041;-70
2022/01/18 11:54:27;;;;;;;17.83;4.47;;;7.20;99.90;;;;;;5037680;28;20037;-70
2022/01/18 11:56:53;;;;;;;;;;;7.20;99.90;;;;;;5054816;28;20081;-70
2022/01/18 11:59:21;;;;;;;16.20;4.55;;;7.20;99.90;;;;;;5054098;28;19927;-70
2022/01/18 12:01:55;;;;;;;11.60;3.63;;;7.20;99.90;;;;;;5054072;28;20041;-71
2022/01/18 12:07:33;;;;;;;13.23;3.47;;;7.30;99.90;;;;;;5053268;28;20048;-71
2022/01/18 12:10:23;;;;;;;17.83;3.95;;;7.30;99.90;;;;;;5053894;28;20040;-70
2022/01/18 12:12:51;;;;;;;13.80;3.92;;;7.30;99.90;;;;;;5035266;28;20576;-70
2022/01/18 12:15:16;;;;;;;17.10;3.70;;;7.20;99.90;;;;;;5053757;28;20091;-70
2022/01/18 12:17:53;;;;;;;14.65;3.60;;;7.20;99.90;;;;;;5053957;28;20037;-70
2022/01/18 12:20:39;;;;;;;16.55;3.75;;;7.20;99.90;;;;;;5037346;28;20509;-70
2022/01/18 12:23:17;;;;;;;11.95;2.72;;;7.20;99.90;;;;;;5053763;28;20045;-70
2022/01/18 12:26:03;;;;;;;13.00;2.85;;;7.20;99.90;;;;;;5037197;28;20504;-70
2022/01/18 12:28:56;;;;;;;13.40;2.83;;;7.20;99.90;;;;;;5053658;28;20127;-70
2022/01/18 12:34:31;;;;;;;13.98;2.97;;;7.30;99.90;;;;;;5012912;28;20041;-70
2022/01/18 12:37:08;;;;;;;13.55;3.95;;;7.20;99.90;;;;;;5053285;28;20048;-71
2022/01/18 12:39:57;;;;;;;13.63;3.20;;;7.20;99.90;;;;;;5053410;28;20037;-71
2022/01/18 12:45:20;;;;;;;15.30;3.58;;;7.20;99.90;;;;;;5053256;28;20127;-71
2022/01/18 12:47:48;;;;;;;16.95;4.03;;;7.20;99.90;;;;;;5036727;28;20040;-71
2022/01/18 12:50:17;;;;;;;11.65;3.78;;;7.20;99.90;;;;;;5053211;28;20040;-71
2022/01/18 12:52:54;;;;;;;13.85;4.15;;;7.20;99.90;;;;;;5053152;28;20408;-71
2022/01/18 12:55:46;;;;;;;15.73;4.45;;;7.20;99.90;;;;;;5053311;28;20037;-71
2022/01/18 12:58:25;;;;;;;17.33;4.72;;;7.10;99.90;;;;;;5053292;28;20044;-71
2022/01/18 13:00:52;;;;;;;14.55;4.65;;;7.10;99.90;;;;;;5054038;28;20044;-71
2022/01/18 13:03:33;;;;;;;15.38;4.70;;;7.10;99.90;;;;;;5053213;28;20044;-71
2022/01/18 13:06:03;;;;;;;17.85;5.03;;;7.10;99.90;;;;;;5053246;28;20045;-74
2022/01/18 13:08:54;;;;;;;16.83;5.28;;;7.10;99.90;;;;;;5036419;28;20412;-74
2022/01/18 13:11:24;;;;;;;17.40;5.38;;;7.20;99.90;;;;;;5052843;28;20048;-75
2022/01/18 13:14:04;;;;;;;15.35;5.20;;;7.10;99.90;;;;;;5036375;28;20045;-75
2022/01/18 13:27:12;;;;;;;20.25;6.82;;;7.20;99.90;;;;;;5052760;28;20049;-74
2022/01/18 13:29:38;;;;;;;18.50;6.28;;;7.20;99.90;;;;;;5052557;28;20119;-73
2022/01/18 13:32:08;;;;;;;17.83;6.50;;;7.20;99.90;;;;;;5052451;28;20140;-74
2022/01/18 13:34:39;;;;;;;23.30;6.90;;;7.20;99.90;;;;;;5052773;28;20045;-74
2022/01/18 13:37:08;;;;;;;20.48;6.38;;;7.10;99.90;;;;;;5035874;28;20070;-74
2022/01/18 13:39:39;;;;;;;16.95;6.10;;;7.10;99.90;;;;;;5052285;28;20063;-74
2022/01/18 13:42:05;;;;;;;22.70;7.63;;;7.10;99.90;;;;;;5053137;28;20067;-74
2022/01/18 13:44:31;;;;;;;18.25;6.65;;;7.10;99.90;;;;;;5052497;28;20123;-75
2022/01/18 13:47:12;;;;;;;23.23;6.40;;;7.10;99.90;;;;;;5052313;28;20068;-74
2022/01/18 13:49:37;;;;;;;17.70;6.80;;;7.10;99.90;;;;;;5052982;28;20049;-75
2022/01/18 13:52:14;;;;;;;18.50;6.88;;;7.10;99.90;;;;;;5036531;28;20033;-74
2022/01/18 13:54:52;;;;;;;19.67;6.30;;;7.10;99.90;;;;;;5052822;28;20080;-74
2022/01/18 13:57:21;;;;;;;19.13;6.40;;;7.00;99.90;;;;;;5036296;28;20036;-74
2022/01/18 13:59:48;;;;;;;25.60;7.15;;;7.00;99.90;;;;;;5053141;28;20063;-74
2022/01/18 14:02:22;;;;;;;23.38;6.90;;;7.00;99.90;;;;;;5052732;28;20111;-75
2022/01/18 14:05:09;;;;;;;19.63;6.18;;;7.00;99.90;;;;;;5035648;28;20037;-74
2022/01/18 14:07:35;;;;;;;20.92;6.90;;;7.00;99.90;;;;;;5052566;28;20124;-73
2022/01/18 14:10:02;;;;;;;25.60;7.32;;;7.00;99.90;;;;;;5053050;28;20064;-74
2022/01/18 14:12:31;;;;;;;17.52;6.38;;;7.00;99.90;;;;;;5036393;28;20517;-74
2022/01/18 14:14:57;;;;;;;25.67;8.38;;;7.00;99.90;;;;;;5035765;28;20083;-74
2022/01/18 14:17:23;;;;;;;21.00;6.90;;;7.00;99.90;;;;;;5052907;28;20187;-74
2022/01/18 14:19:51;;;;;;;20.85;6.60;;;6.90;99.90;;;;;;5036526;28;20513;-75
2022/01/18 14:22:16;;;;;;;19.35;6.63;;;7.00;99.90;;;;;;5052966;28;20084;-75
2022/01/18 14:24:47;;;;;;;17.42;5.78;;;7.00;99.90;;;;;;5036277;28;20068;-73
2022/01/18 14:27:25;;;;;;;19.65;5.75;;;7.00;99.90;;;;;;5052570;28;20082;-74
2022/01/18 14:29:56;;;;;;;24.65;6.07;;;7.00;99.90;;;;;;5038734;28;20083;-74
2022/01/18 14:32:26;;;;;;;17.25;5.75;;;7.00;99.90;;;;;;5040359;28;20076;-74